Flight Track Log - Related Links

Times and Time Zones

All times are in EDT time to prevent confusion due to time zone crossing. See the N71RG flight status page for this flight to view local times or setup timezone preferences in your user account.

Time Position Orientation Groundspeed Altitude Reporting Facility
EDT Latitude Longitude Course Direction KTS MPH feet Rate Location/Type
Fri 06:53:45 AM 39.7333 -86.3000 322° Northwest 159 183 1,200  Level Indianapolis TRACON
Fri 06:54:45 AM 39.7667 -86.3333 322° Northwest 169 194 2,900 1,737 Climbing Indianapolis TRACON
Fri 06:55:39 AM 39.8167 -86.3167 14° North 166 191 4,500 1,467 Climbing Indianapolis TRACON
Fri 06:56:15 AM 39.8306 -86.2992 44° Northeast 159 183 5,100 1,408 Climbing Indianapolis Center
Fri 06:57:17 AM 39.8711 -86.2750 25° Northeast 160 184 6,800 1,659 Climbing Indianapolis Center
Fri 06:58:18 AM 39.9125 -86.2542 21° North 159 183 8,500 1,700 Climbing Indianapolis Center
Fri 06:59:17 AM 39.9536 -86.2314 23° Northeast 160 184 10,200 1,240 Climbing Indianapolis Center
Fri 07:00:19 AM 39.9967 -86.2075 23° Northeast 167 192 11,000 634 Climbing Indianapolis Center
Fri 07:01:20 AM 40.0522 -86.1753 24° Northeast 217 250 11,500 683 Climbing Indianapolis Center
Fri 07:02:22 AM 40.1061 -86.1453 23° Northeast 212 244 12,400 1,190 Climbing Indianapolis Center
Fri 07:03:16 AM 40.1556 -86.1131 26° Northeast 202 232 13,800 1,461 Climbing Chicago Center
Fri 07:04:17 AM 40.1903 -86.0611 49° Northeast 191 220 15,200 1,230 Climbing Chicago Center
Fri 07:05:18 AM 40.2272 -86.0169 42° Northeast 184 212 16,300 1,082 Climbing Chicago Center
Fri 07:06:19 AM 40.2639 -85.9706 44° Northeast 184 212 17,400 984 Climbing Chicago Center
Fri 07:07:20 AM 40.3003 -85.9233 45° Northeast 184 212 18,300 984 Climbing Chicago Center
Fri 07:08:21 AM 40.3383 -85.8767 43° Northeast 187 215 19,400 1,279 Climbing Chicago Center
Fri 07:09:22 AM 40.3789 -85.8267 43° Northeast 169 194 20,900 1,230 Climbing Chicago Center
Fri 07:10:23 AM 40.4117 -85.7836 45° Northeast 169 194 21,900 934 Climbing Chicago Center
Fri 07:11:24 AM 40.4453 -85.7417 44° Northeast 169 194 22,800 885 Climbing Chicago Center
Fri 07:12:25 AM 40.4789 -85.6981 45° Northeast 171 197 23,700 984 Climbing Chicago Center
Fri 07:13:26 AM 40.5117 -85.6572 43° Northeast 162 186 24,800 639 Climbing Chicago Center
Fri 07:14:27 AM 40.5408 -85.6100 51° Northeast 166 191 25,000 89 Climbing Chicago Center
Fri 07:15:41 AM 40.5781 -85.5583 47° Northeast 188 216 25,000  Level Chicago Center
Fri 07:16:42 AM 40.6269 -85.4911 46° Northeast 207 238 25,000  Level Chicago Center
Fri 07:17:43 AM 40.6744 -85.4256 46° Northeast 218 251 25,000  Level Chicago Center
Fri 07:18:45 AM 40.7175 -85.3689 45° Northeast 220 253 25,000  Level Chicago Center
Fri 07:19:46 AM 40.7603 -85.3061 48° Northeast 227 261 25,000  Level Chicago Center
Fri 07:20:47 AM 40.8039 -85.2442 47° Northeast 231 266 25,000  Level Chicago Center
Fri 07:21:48 AM 40.8469 -85.1839 47° Northeast 229 264 25,000  Level Chicago Center
Fri 07:22:50 AM 40.8900 -85.1261 45° Northeast 223 257 25,000  Level Chicago Center
Fri 07:23:51 AM 40.9408 -85.0522 48° Northeast 227 261 25,000  Level Chicago Center
Fri 07:24:52 AM 40.9839 -84.9928 46° Northeast 225 259 25,000  Level Chicago Center
Fri 07:25:54 AM 41.0264 -84.9339 46° Northeast 223 257 25,000  Level Chicago Center
Fri 07:26:55 AM 41.0689 -84.8725 47° Northeast 226 260 25,000  Level Chicago Center
Fri 07:27:57 AM 41.1111 -84.8147 46° Northeast 222 255 25,000  Level Chicago Center
Fri 07:28:58 AM 41.1536 -84.7531 48° Northeast 225 259 25,000  Level Chicago Center
Fri 07:29:59 AM 41.1956 -84.6947 46° Northeast 221 254 25,000  Level Chicago Center
Fri 07:31:01 AM 41.2375 -84.6333 48° Northeast 225 259 25,000  Level Chicago Center
Fri 07:32:02 AM 41.2881 -84.5628 46° Northeast 221 254 25,000  Level Chicago Center
Fri 07:33:04 AM 41.3292 -84.5025 48° Northeast 221 254 25,000  Level Chicago Center
Fri 07:34:05 AM 41.3719 -84.4431 46° Northeast 223 257 25,000  Level Chicago Center
Fri 07:35:07 AM 41.4136 -84.3831 47° Northeast 222 255 25,000  Level Chicago Center
Fri 07:36:08 AM 41.4542 -84.3239 48° Northeast 219 252 25,000  Level Chicago Center
Fri 07:37:10 AM 41.4953 -84.2647 47° Northeast 219 252 25,000  Level Chicago Center
Fri 07:38:11 AM 41.5369 -84.2056 47° Northeast 220 253 25,000  Level Chicago Center
Fri 07:39:13 AM 41.5783 -84.1461 47° Northeast 219 252 25,000  Level Chicago Center
Fri 07:40:24 AM 41.6275 -84.0697 49° Northeast 210 242 25,000  Level Cleveland Center
Fri 07:41:24 AM 41.6689 -84.0136 45° Northeast 210 242 25,000  Level Cleveland Center
Fri 07:42:24 AM 41.7103 -83.9544 47° Northeast 210 242 25,000  Level Cleveland Center
Fri 07:43:24 AM 41.7494 -83.8925 50° Northeast 210 242 25,000  Level Cleveland Center
Fri 07:44:24 AM 41.7908 -83.8333 47° Northeast 210 242 25,000  Level Cleveland Center
Fri 07:45:24 AM 41.8300 -83.7742 48° Northeast 210 242 25,000  Level Cleveland Center
Fri 07:46:24 AM 41.8733 -83.7122 47° Northeast 210 242 25,000  Level Cleveland Center
Fri 07:47:24 AM 41.9125 -83.6525 49° Northeast 210 242 25,000  Level Cleveland Center
Fri 07:48:24 AM 41.9539 -83.5931 47° Northeast 210 242 25,000  Level Cleveland Center
Fri 07:49:24 AM 41.9950 -83.5336 47° Northeast 216 249 25,000  Level Cleveland Center
Fri 07:50:24 AM 42.0381 -83.4742 46° Northeast 209 241 25,000  Level Cleveland Center
Fri 07:51:24 AM 42.0733 -83.4058 55° Northeast 209 241 25,000  Level Cleveland Center
Fri 07:52:24 AM 42.1061 -83.3372 57° Northeast 209 241 25,000  Level Cleveland Center
Fri 07:53:24 AM 42.1392 -83.2658 58° Northeast 215 247 25,000  Level Cleveland Center
Fri 07:54:24 AM 42.1700 -83.1942 60° Northeast 215 247 25,000  Level Cleveland Center
Fri 07:55:24 AM 42.2069 -83.1228 55° Northeast 215 247 25,000  Level Cleveland Center
Fri 07:56:24 AM 42.2378 -83.0539 59° Northeast 215 247 25,000  Level Cleveland Center
Fri 07:57:24 AM 42.2725 -82.9853 56° Northeast 215 247 25,000  Level Cleveland Center
Fri 07:58:24 AM 42.3053 -82.9133 58° Northeast 215 247 25,000  Level Cleveland Center
Fri 07:59:24 AM 42.3378 -82.8444 57° Northeast 215 247 25,000  Level Cleveland Center
Fri 08:00:24 AM 42.3747 -82.7669 57° Northeast 215 247 25,000  Level Cleveland Center
Fri 08:01:24 AM 42.4094 -82.6950 57° Northeast 220 253 25,000  Level Cleveland Center
Fri 08:02:24 AM 42.4422 -82.6231 58° Northeast 220 253 25,000  Level Cleveland Center
Fri 08:03:24 AM 42.4744 -82.5536 58° Northeast 220 253 25,000  Level Cleveland Center
Fri 08:04:24 AM 42.5092 -82.4817 57° Northeast 220 253 25,000  Level Cleveland Center
Fri 08:05:24 AM 42.5414 -82.4119 58° Northeast 220 253 25,000  Level Cleveland Center
Fri 08:06:24 AM 42.5761 -82.3397 57° Northeast 220 253 25,000  Level Cleveland Center
Fri 08:07:24 AM 42.6083 -82.2644 60° Northeast 220 253 25,000  Level Cleveland Center
Fri 08:08:24 AM 42.6428 -82.1947 56° Northeast 220 253 25,000  Level Cleveland Center
Fri 08:09:24 AM 42.6769 -82.1222 57° Northeast 225 259 25,000  Level Cleveland Center
Fri 08:10:24 AM 42.7114 -82.0497 57° Northeast 225 259 25,000  Level Cleveland Center
Fri 08:11:24 AM 42.7436 -81.9769 59° Northeast 225 259 25,000  Level Cleveland Center
Fri 08:13:18 AM 42.8000 -81.8333 62° Northeast 230 265 25,000 -34 Level Toronto Center
Fri 08:14:18 AM 42.8333 -81.7500 61° Northeast 230 265 24,900 -600 Descending Toronto Center
Fri 08:15:18 AM 42.8667 -81.6833 56° Northeast 240 276 23,800 -1,200 Descending Toronto Center
Fri 08:16:18 AM 42.9000 -81.5833 66° East 260 299 22,500 -1,300 Descending Toronto Center
Fri 08:17:18 AM 42.9500 -81.5000 51° Northeast 270 311 21,200 -1,250 Descending Toronto Center
Fri 08:18:18 AM 42.9833 -81.4167 61° Northeast 270 311 20,000 -1,250 Descending Toronto Center
Fri 08:19:18 AM 43.0167 -81.3167 65° Northeast 270 311 18,700 -1,200 Descending Toronto Center
Fri 08:20:18 AM 43.0500 -81.2333 61° Northeast 270 311 17,600 -1,150 Descending Toronto Center
Fri 08:21:18 AM 43.1000 -81.1667 44° Northeast 270 311 16,400 -1,250 Descending Toronto Center
Fri 08:22:18 AM 43.1333 -81.0667 65° Northeast 270 311 15,100 -1,300 Descending Toronto Center
Fri 08:23:18 AM 43.1667 -80.9833 61° Northeast 270 311 13,800 -1,000 Descending Toronto Center
Fri 08:24:18 AM 43.2000 -80.8833 65° Northeast 260 299 13,100 -400 Descending Toronto Center
Fri 08:25:18 AM 43.2333 -80.8167 56° Northeast 250 288 13,000 -50 Descending Toronto Center
Fri 08:26:18 AM 43.2833 -80.7333 50° Northeast 240 276 13,000 -750 Level Toronto Center
Fri 08:27:18 AM 43.3167 -80.6667 55° Northeast 250 288 11,500 -1,550 Descending Toronto Center
Fri 08:28:18 AM 43.3667 -80.5667 55° Northeast 250 288 9,900 -1,650 Descending Toronto Center
Fri 08:29:18 AM 43.4000 -80.4833 61° Northeast 250 288 8,200 -1,400 Descending Toronto Center
Fri 08:30:18 AM 43.4333 -80.4167 55° Northeast 260 299 7,100 -600 Descending Toronto Center
Fri 08:31:18 AM 43.4667 -80.3167 65° Northeast 250 288 7,000 -50 Descending Toronto Center
Fri 08:32:18 AM 43.4667 -80.2333 90° East 240 276 7,000 -100 Level Toronto Center
Fri 08:33:18 AM 43.4833 -80.1333 77° East 240 276 6,800 -750 Descending Toronto Center
Fri 08:34:18 AM 43.4833 -80.0500 90° East 240 276 5,500 -1,100 Descending Toronto Center
Fri 08:35:18 AM 43.4833 -79.9833 90° East 210 242 4,600 -750 Descending Toronto Center
Fri 08:36:18 AM 43.4833 -79.9167 90° East 180 207 4,000 -700 Descending Toronto Center
Fri 08:37:18 AM 43.5167 -79.8667 47° Northeast 170 196 3,200 -500 Descending Toronto Center
Fri 08:38:18 AM 43.5500 -79.8167 47° Northeast 160 184 3,000 -100 Descending Toronto Center
Fri 08:39:18 AM 43.5833 -79.7667 47° Northeast 170 196 3,000 -400 Level Toronto Center
Fri 08:40:18 AM 43.6167 -79.7333 36° Northeast 170 196 2,200 -850 Descending Toronto Center
Fri 08:41:18 AM 43.6500 -79.6833 47° Northeast 170 196 1,300 -750 Descending Toronto Center
Fri 08:42:18 AM 43.6667 -79.6333 65° Northeast 130 150 700 -400 Descending Toronto Center
Fri 08:43:18 AM 43.6667 -79.6333 65° Northeast 50 58 500 -200 Descending Toronto Center

Login

Don't have an account? Register now (free) for customized features, flight alerts, and more!